Time;durP1;ratioP1;P1;durP2;ratioP2;P2;SDS_P1;SDS_P2;PMS_P1;PMS_P2;Temp;Humidity;BMP_temperature;BMP_pressure;BME280_temperature;BME280_humidity;BME280_pressure;Samples;Min_cycle;Max_cycle;Signal;HPM_P1;HPM_P2
2023/01/19 00:01:02;;;;;;;65.10;29.42;;;;;;;9.16;100.00;99384.44;5005010;28;20034;-81
2023/01/19 00:03:27;;;;;;;53.22;29.52;;;;;;;8.66;100.00;99287.28;5002835;28;20517;-80
2023/01/19 00:05:53;;;;;;;54.22;27.73;;;;;;;8.98;100.00;99356.72;5001441;28;20414;-81
2023/01/19 00:08:18;;;;;;;49.03;27.88;;;;;;;8.93;100.00;99351.53;4997942;28;20464;-79
2023/01/19 00:10:47;;;;;;;48.25;28.58;;;;;;;8.86;100.00;99327.16;5008496;28;20061;-79
2023/01/19 00:13:13;;;;;;;61.03;25.10;;;;;;;9.36;100.00;99431.31;5005170;28;20129;-78
2023/01/19 00:15:39;;;;;;;53.28;25.27;;;;;;;9.35;100.00;99404.28;5001554;28;20065;-79
2023/01/19 00:18:04;;;;;;;55.00;24.95;;;;;;;9.08;100.00;99360.94;4999908;28;20047;-80
2023/01/19 00:20:34;;;;;;;52.20;28.65;;;;;;;8.95;100.00;99334.06;4998708;28;20421;-76
2023/01/19 00:23:01;;;;;;;59.03;25.42;;;;;;;9.30;100.00;99437.50;5005092;28;20133;-78
2023/01/19 00:25:27;;;;;;;66.07;25.58;;;;;;;9.42;100.00;99423.41;5005399;28;20044;-76
2023/01/19 00:27:52;;;;;;;56.38;26.50;;;;;;;9.60;100.00;99458.97;4998906;28;20042;-79
2023/01/19 00:30:18;;;;;;;58.97;28.20;;;;;;;9.57;100.00;99453.78;5005416;28;20092;-76
2023/01/19 00:32:43;;;;;;;68.18;28.27;;;;;;;8.87;100.00;99335.88;4999763;28;20061;-78
2023/01/19 00:35:10;;;;;;;64.47;27.27;;;;;;;9.42;100.00;99434.75;5007401;28;20056;-81
2023/01/19 00:37:35;;;;;;;60.28;28.42;;;;;;;9.47;100.00;99474.81;5012071;28;20054;-81
2023/01/19 00:40:01;;;;;;;54.40;26.95;;;;;;;9.16;100.00;99449.88;5000493;28;20045;-79
2023/01/19 00:42:39;;;;;;;61.45;26.42;;;;;;;9.25;100.00;99434.94;5010169;28;20050;-79
2023/01/19 00:45:06;;;;;;;44.10;23.75;;;;;;;8.93;100.00;99385.53;5008243;28;20103;-80
2023/01/19 00:47:32;;;;;;;54.90;22.23;;;;;;;9.27;100.00;99455.84;5011143;28;20050;-80
2023/01/19 00:49:57;;;;;;;46.05;20.13;;;;;;;9.43;100.00;99432.97;5006729;28;20092;-77
2023/01/19 00:52:23;;;;;;;39.70;21.90;;;;;;;9.46;100.00;99452.16;5004023;28;20030;-80
2023/01/19 00:54:48;;;;;;;55.70;20.95;;;;;;;9.08;100.00;99422.03;5013774;28;20052;-80
2023/01/19 00:57:15;;;;;;;55.22;21.00;;;;;;;8.27;100.00;99306.81;5000025;28;20042;-79
2023/01/19 00:59:40;;;;;;;54.20;17.75;;;;;;;8.55;100.00;99302.22;4999440;28;20501;-79
2023/01/19 01:02:06;;;;;;;56.78;19.50;;;;;;;8.76;100.00;99303.75;5000395;28;20064;-79
2023/01/19 01:04:31;;;;;;;45.67;20.65;;;;;;;8.94;100.00;99362.84;5011343;28;20579;-79
2023/01/19 01:06:57;;;;;;;56.05;19.02;;;;;;;8.82;100.00;99328.06;5012771;28;20044;-76
2023/01/19 01:09:23;;;;;;;49.90;20.25;;;;;;;9.41;100.00;99434.75;5003141;28;20058;-79
2023/01/19 01:11:48;;;;;;;59.28;19.85;;;;;;;9.27;100.00;99441.03;5003316;28;20137;-79
2023/01/19 01:14:14;;;;;;;55.05;20.40;;;;;;;8.60;100.00;99311.75;5007499;28;20417;-79
2023/01/19 01:16:39;;;;;;;68.20;25.15;;;;;;;8.38;100.00;99284.03;5004200;28;20038;-80
2023/01/19 01:19:05;;;;;;;38.53;20.23;;;;;;;8.46;100.00;99300.56;5010812;28;20048;-79
2023/01/19 01:21:33;;;;;;;48.75;20.45;;;;;;;9.23;100.00;99413.13;5011545;28;20066;-78
2023/01/19 01:23:59;;;;;;;68.88;21.80;;;;;;;8.58;100.00;99312.66;5010090;28;20092;-76
2023/01/19 01:26:24;;;;;;;49.22;18.33;;;;;;;8.73;100.00;99343.00;5015519;28;20450;-79
2023/01/19 01:28:50;;;;;;;48.20;20.88;;;;;;;8.51;100.00;99304.00;5015108;28;20774;-79
2023/01/19 01:31:15;;;;;;;55.40;20.75;;;;;;;8.78;100.00;99397.03;5004160;28;20269;-80
2023/01/19 01:33:41;;;;;;;53.75;16.70;;;;;;;8.97;100.00;99413.41;5011278;28;20089;-80
2023/01/19 01:36:06;;;;;;;44.03;19.77;;;;;;;8.84;100.00;99401.31;5005949;28;20053;-79
2023/01/19 01:38:32;;;;;;;78.30;22.25;;;;;;;8.19;100.00;99284.22;5008484;28;20049;-80
2023/01/19 01:40:57;;;;;;;74.93;20.67;;;;;;;7.87;100.00;99283.63;5006774;28;20045;-79
2023/01/19 01:43:40;;;;;;;53.25;22.17;;;;;;;7.83;100.00;99294.06;5002644;28;20485;-78
2023/01/19 01:46:05;;;;;;;52.13;16.45;;;;;;;8.04;100.00;99276.50;5004467;28;20044;-78
2023/01/19 01:48:32;;;;;;;59.10;19.42;;;;;;;8.16;100.00;99254.63;5011407;28;20592;-77
2023/01/19 01:51:23;;;;;;;37.95;19.67;;;;;;;8.13;100.00;99252.06;5010545;28;20034;-80
2023/01/19 01:54:21;;;;;;;76.18;26.10;;;;;;;8.91;100.00;99389.03;5010273;28;20053;-79
2023/01/19 01:57:00;;;;;;;48.13;19.95;;;;;;;7.63;100.00;99277.66;4999324;28;20073;-80
2023/01/19 01:59:33;;;;;;;57.38;18.13;;;;;;;7.93;100.00;99347.09;5005283;28;20388;-80
2023/01/19 02:04:51;;;;;;;47.85;14.50;;;;;;;8.15;100.00;99328.69;5009057;28;20088;-80
2023/01/19 02:15:38;;;;;;;60.70;15.38;;;;;;;7.76;100.00;99206.22;5005196;28;20711;-79
2023/01/19 02:18:04;;;;;;;48.72;17.35;;;;;;;7.66;100.00;99225.44;5009926;28;20046;-80
2023/01/19 02:20:34;;;;;;;65.25;17.70;;;;;;;7.61;100.00;99225.47;5004229;28;20041;-79
2023/01/19 02:23:06;;;;;;;72.85;18.27;;;;;;;7.66;100.00;99209.78;5007787;28;20042;-80
2023/01/19 02:25:31;;;;;;;39.00;16.50;;;;;;;7.40;100.00;99204.75;5005696;28;20029;-81
2023/01/19 02:27:58;;;;;;;48.90;17.95;;;;;;;7.64;100.00;99250.69;5006897;28;20045;-79
2023/01/19 02:30:23;;;;;;;48.70;17.58;;;;;;;7.87;100.00;99322.78;5000997;28;20048;-78
2023/01/19 02:32:49;;;;;;;51.95;14.70;;;;;;;8.13;100.00;99325.22;5001821;28;20050;-78
2023/01/19 02:35:14;;;;;;;49.35;17.85;;;;;;;7.21;100.00;99226.59;5002181;28;20045;-79
2023/01/19 02:37:42;;;;;;;54.92;16.75;;;;;;;7.23;100.00;99303.97;4997326;28;20100;-79
2023/01/19 02:40:13;;;;;;;63.83;19.67;;;;;;;6.40;100.00;99181.75;4998614;28;20034;-80
2023/01/19 02:42:44;;;;;;;60.67;20.45;;;;;;;6.81;100.00;99256.31;5007989;28;20093;-79
2023/01/19 02:45:13;;;;;;;60.80;20.65;;;;;;;6.84;100.00;99273.72;5003415;28;20054;-79
2023/01/19 02:47:50;;;;;;;50.65;20.10;;;;;;;6.74;100.00;99262.44;5006498;28;20209;-78
2023/01/19 02:50:44;;;;;;;56.42;18.63;;;;;;;7.21;100.00;99282.28;4997857;28;20038;-79
2023/01/19 02:53:41;;;;;;;49.67;15.75;;;;;;;7.40;100.00;99265.63;5017580;28;20049;-78
2023/01/19 02:56:45;;;;;;;44.53;18.00;;;;;;;7.64;100.00;99273.34;5015375;28;20128;-79
2023/01/19 02:59:40;;;;;;;59.25;16.50;;;;;;;6.71;100.00;99137.34;5008782;28;20061;-77
2023/01/19 03:02:27;;;;;;;51.78;18.23;;;;;;;7.57;100.00;99275.97;5008810;28;20052;-79
2023/01/19 03:04:55;;;;;;;49.55;19.75;;;;;;;7.53;100.00;99270.78;5013048;28;20050;-80
2023/01/19 03:07:40;;;;;;;58.53;19.08;;;;;;;7.54;100.00;99285.56;5010028;28;20037;-79
2023/01/19 03:10:19;;;;;;;52.22;18.52;;;;;;;7.31;100.00;99285.69;5004289;28;20037;-79
2023/01/19 03:13:07;;;;;;;55.25;19.08;;;;;;;6.66;100.00;99197.31;5011702;28;20167;-78
2023/01/19 03:15:45;;;;;;;55.85;18.98;;;;;;;7.28;100.00;99263.09;4996893;28;20057;-79
2023/01/19 03:18:13;;;;;;;62.85;18.00;;;;;;;7.19;100.00;99229.22;5010485;28;20058;-77
2023/01/19 03:20:40;;;;;;;41.00;17.67;;;;;;;6.86;100.00;99163.34;5011593;28;20052;-78
2023/01/19 03:23:10;;;;;;;37.25;15.82;;;;;;;6.81;100.00;99193.75;5013366;28;20038;-79
2023/01/19 03:25:41;;;;;;;43.22;18.50;;;;;;;6.61;100.00;99170.41;5011632;28;20524;-79
2023/01/19 03:28:06;;;;;;;92.85;35.30;;;;;;;6.73;100.00;99159.91;5010496;28;20032;-81
2023/01/19 03:30:37;;;;;;;116.05;49.80;;;;;;;6.54;100.00;99140.03;5011206;28;20410;-80
2023/01/19 03:33:15;;;;;;;69.53;31.13;;;;;;;6.94;100.00;99289.31;5011936;28;20064;-80
2023/01/19 03:35:49;;;;;;;87.82;31.17;;;;;;;6.70;100.00;99281.59;5012209;28;20530;-79
2023/01/19 03:38:17;;;;;;;52.53;23.45;;;;;;;6.70;100.00;99282.44;5028546;28;20136;-80
2023/01/19 03:40:44;;;;;;;60.45;20.30;;;;;;;6.63;100.00;99275.50;5009213;28;20033;-79
2023/01/19 03:43:10;;;;;;;75.78;21.30;;;;;;;5.87;100.00;99125.44;5009908;28;20036;-78
2023/01/19 03:45:38;;;;;;;39.80;17.35;;;;;;;6.72;100.00;99277.25;5006576;28;20072;-80
2023/01/19 03:48:05;;;;;;;53.03;18.25;;;;;;;6.27;100.00;99200.91;5014568;28;20056;-81
2023/01/19 03:50:31;;;;;;;46.70;20.38;;;;;;;6.70;100.00;99286.81;5006573;28;20069;-78
2023/01/19 03:53:07;;;;;;;39.15;15.90;;;;;;;5.85;100.00;99146.28;5018591;28;20069;-80
2023/01/19 03:55:34;;;;;;;63.15;17.80;;;;;;;6.18;100.00;99167.06;5015908;28;20041;-80
2023/01/19 03:57:59;;;;;;;64.28;16.23;;;;;;;6.78;100.00;99229.41;5014335;28;20037;-78
2023/01/19 04:00:25;;;;;;;39.22;13.52;;;;;;;6.71;100.00;99182.50;5008218;28;20779;-80
2023/01/19 04:02:50;;;;;;;62.15;18.27;;;;;;;6.94;100.00;99218.06;5009104;28;20050;-82
2023/01/19 04:05:17;;;;;;;38.90;19.75;;;;;;;6.30;100.00;99141.84;5002193;28;20046;-76
2023/01/19 04:07:43;;;;;;;45.80;18.35;;;;;;;7.10;100.00;99276.22;5008767;28;20037;-79
2023/01/19 04:10:11;;;;;;;62.53;18.00;;;;;;;6.37;100.00;99150.53;5005176;28;20034;-79
2023/01/19 04:12:38;;;;;;;69.15;20.60;;;;;;;7.17;100.00;99293.59;5004686;28;20046;-78
2023/01/19 04:15:05;;;;;;;51.20;17.73;;;;;;;7.00;100.00;99290.16;5007376;28;20053;-79
2023/01/19 04:17:31;;;;;;;49.78;21.80;;;;;;;6.54;100.00;99186.94;5015626;28;20042;-78
2023/01/19 04:19:56;;;;;;;56.63;19.17;;;;;;;7.16;100.00;99303.16;5003013;28;20088;-80
2023/01/19 04:22:21;;;;;;;40.85;18.38;;;;;;;6.87;100.00;99271.97;5003716;28;20034;-79
2023/01/19 04:24:47;;;;;;;70.25;25.38;;;;;;;6.08;100.00;99163.59;5004357;28;20061;-78
2023/01/19 04:27:15;;;;;;;65.13;18.27;;;;;;;6.69;100.00;99228.56;5014339;28;20030;-79
2023/01/19 04:29:41;;;;;;;63.35;24.95;;;;;;;6.80;100.00;99274.59;5005233;28;20129;-79
2023/01/19 04:32:06;;;;;;;92.32;31.52;;;;;;;6.36;100.00;99164.41;5007445;28;20049;-79
2023/01/19 04:34:32;;;;;;;52.85;22.10;;;;;;;6.23;100.00;99158.38;5010002;28;20045;-78
2023/01/19 04:36:57;;;;;;;67.75;21.40;;;;;;;6.72;100.00;99249.44;5006737;28;20401;-79
2023/01/19 04:39:23;;;;;;;49.15;15.48;;;;;;;7.00;100.00;99282.34;5006591;28;20038;-78
2023/01/19 04:41:50;;;;;;;62.03;19.95;;;;;;;6.09;100.00;99140.19;5007074;28;20790;-79
2023/01/19 04:44:16;;;;;;;55.20;20.35;;;;;;;5.99;100.00;99153.22;5016764;28;20041;-78
2023/01/19 04:46:41;;;;;;;50.47;17.98;;;;;;;6.80;100.00;99288.50;4996531;28;20032;-80
2023/01/19 04:49:08;;;;;;;47.72;18.90;;;;;;;6.18;100.00;99170.56;5007805;28;20599;-79
2023/01/19 04:51:34;;;;;;;48.70;18.40;;;;;;;6.86;100.00;99290.22;5006680;28;20069;-80
2023/01/19 04:54:00;;;;;;;56.45;19.38;;;;;;;6.09;100.00;99148.00;5011331;28;20552;-80
2023/01/19 04:56:26;;;;;;;49.35;20.45;;;;;;;6.06;100.00;99170.56;5004408;28;20050;-81
2023/01/19 04:58:52;;;;;;;57.33;16.63;;;;;;;6.79;100.00;99262.41;5010993;28;20046;-81
2023/01/19 05:01:17;;;;;;;48.55;17.80;;;;;;;6.94;100.00;99278.03;5008562;28;20036;-82
2023/01/19 05:03:43;;;;;;;46.33;17.38;;;;;;;6.87;100.00;99290.22;5009961;28;20061;-81
2023/01/19 05:06:09;;;;;;;78.63;19.10;;;;;;;6.43;100.00;99163.50;5006969;28;20046;-81
2023/01/19 05:08:34;;;;;;;44.25;19.15;;;;;;;6.44;100.00;99161.75;5003696;28;20033;-81
2023/01/19 05:10:59;;;;;;;71.07;22.27;;;;;;;7.23;100.00;99300.50;5005365;28;20089;-80
2023/01/19 05:13:25;;;;;;;37.03;18.40;;;;;;;7.35;100.00;99303.94;4996859;28;20023;-81
2023/01/19 05:15:50;;;;;;;48.92;20.95;;;;;;;6.72;100.00;99170.38;5003186;28;20061;-80
2023/01/19 05:18:16;;;;;;;53.47;17.50;;;;;;;6.64;100.00;99174.72;4995747;28;20418;-81
2023/01/19 05:20:42;;;;;;;58.35;20.23;;;;;;;7.48;100.00;99309.09;5001046;28;20046;-81
2023/01/19 05:23:07;;;;;;;42.25;17.52;;;;;;;7.55;100.00;99332.53;5007362;28;20053;-77
2023/01/19 05:25:33;;;;;;;48.25;21.42;;;;;;;7.25;100.00;99327.47;4992890;28;20549;-80
2023/01/19 05:27:58;;;;;;;43.65;20.30;;;;;;;7.43;100.00;99321.31;5005491;28;20034;-79
2023/01/19 05:30:24;;;;;;;45.22;20.42;;;;;;;7.56;100.00;99320.34;4997724;28;20486;-80
2023/01/19 05:32:49;;;;;;;53.13;21.17;;;;;;;7.45;100.00;99290.84;5001304;28;20046;-79
2023/01/19 05:35:15;;;;;;;71.72;26.77;;;;;;;7.49;100.00;99314.31;4999141;28;20058;-80
2023/01/19 05:37:41;;;;;;;67.72;23.58;;;;;;;6.86;100.00;99217.19;5009951;28;20382;-80
2023/01/19 05:40:08;;;;;;;64.95;24.20;;;;;;;6.78;100.00;99203.34;5005187;28;20041;-79
2023/01/19 05:42:33;;;;;;;49.95;22.52;;;;;;;7.13;100.00;99355.31;5010736;28;20108;-79
2023/01/19 05:44:59;;;;;;;46.20;18.83;;;;;;;6.62;100.00;99357.16;5001727;28;20046;-77
2023/01/19 05:47:24;;;;;;;60.33;18.15;;;;;;;6.29;100.00;99348.50;5008027;28;20129;-80
2023/01/19 05:49:50;;;;;;;40.80;16.70;;;;;;;6.26;100.00;99325.06;5005933;28;20053;-79
2023/01/19 05:52:15;;;;;;;47.95;16.10;;;;;;;6.29;100.00;99230.41;5006930;28;20065;-78
2023/01/19 05:54:41;;;;;;;53.05;15.85;;;;;;;7.23;100.00;99339.63;4998907;28;20045;-79
2023/01/19 05:57:07;;;;;;;34.85;16.42;;;;;;;6.54;100.00;99231.22;5007912;28;20592;-77
2023/01/19 05:59:32;;;;;;;46.08;18.80;;;;;;;6.21;100.00;99240.00;5005634;28;20054;-78
2023/01/19 06:01:58;;;;;;;43.90;19.15;;;;;;;6.52;100.00;99371.94;5005821;28;20054;-79
2023/01/19 06:04:24;;;;;;;47.00;16.95;;;;;;;6.00;100.00;99235.69;5009537;28;20051;-79
2023/01/19 06:06:50;;;;;;;30.25;16.77;;;;;;;6.71;100.00;99346.72;5005979;28;20490;-81
2023/01/19 06:09:16;;;;;;;44.35;17.90;;;;;;;6.64;100.00;99368.47;5010703;28;20132;-81
2023/01/19 06:11:46;;;;;;;50.58;13.23;;;;;;;6.19;100.00;99361.53;4996764;28;20069;-82
2023/01/19 06:14:11;;;;;;;51.05;18.23;;;;;;;5.72;100.00;99259.91;5006858;28;20049;-81
2023/01/19 06:16:37;;;;;;;52.10;20.35;;;;;;;6.63;100.00;99358.06;4996806;28;20041;-81
2023/01/19 06:19:03;;;;;;;55.58;19.83;;;;;;;6.64;100.00;99378.03;4993352;28;20470;-81
2023/01/19 06:21:28;;;;;;;48.28;18.92;;;;;;;6.76;100.00;99391.03;5002275;28;20038;-81
2023/01/19 06:23:54;;;;;;;54.95;20.35;;;;;;;6.34;100.00;99364.13;5005181;28;20042;-78
2023/01/19 06:26:19;;;;;;;64.60;20.40;;;;;;;6.27;100.00;99386.69;4998436;28;20516;-77
2023/01/19 06:28:45;;;;;;;59.58;20.17;;;;;;;6.38;100.00;99380.66;5013008;28;20431;-80
2023/01/19 06:31:11;;;;;;;54.20;22.20;;;;;;;5.91;100.00;99279.03;5010267;28;20069;-78
2023/01/19 06:33:36;;;;;;;53.95;16.40;;;;;;;6.60;100.00;99398.00;4997037;28;20587;-80
2023/01/19 06:36:02;;;;;;;47.08;17.33;;;;;;;6.29;100.00;99358.06;5001216;28;20050;-78
2023/01/19 06:38:28;;;;;;;53.40;21.25;;;;;;;6.60;100.00;99390.19;5005025;28;20046;-80
2023/01/19 06:40:57;;;;;;;60.35;22.80;;;;;;;6.68;100.00;99384.97;4999318;28;20061;-79
2023/01/19 06:43:23;;;;;;;54.80;21.98;;;;;;;6.46;100.00;99373.69;5008133;28;20033;-79
2023/01/19 06:45:49;;;;;;;46.25;22.63;;;;;;;6.32;100.00;99423.19;5007212;28;20177;-76
2023/01/19 06:48:15;;;;;;;40.70;15.70;;;;;;;5.17;100.00;99254.59;5005770;28;20069;-79
2023/01/19 06:50:40;;;;;;;36.53;17.00;;;;;;;5.79;100.00;99343.22;5009743;28;20484;-79
2023/01/19 06:53:06;;;;;;;40.58;19.70;;;;;;;5.72;100.00;99290.28;5007344;28;20045;-81
2023/01/19 06:55:34;;;;;;;38.03;16.50;;;;;;;6.80;100.00;99408.44;4998535;28;20101;-82
2023/01/19 06:58:00;;;;;;;46.92;19.73;;;;;;;6.42;100.00;99328.53;5003468;28;20042;-80
2023/01/19 07:00:26;;;;;;;52.20;25.67;;;;;;;5.55;100.00;99233.03;5012592;28;20678;-81
2023/01/19 07:02:51;;;;;;;50.53;24.02;;;;;;;5.90;100.00;99284.25;5003987;28;20073;-82
2023/01/19 07:05:17;;;;;;;66.65;22.08;;;;;;;5.99;100.00;99275.56;5012955;28;20050;-81
2023/01/19 07:07:44;;;;;;;46.13;23.02;;;;;;;6.91;100.00;99416.25;5002318;28;20038;-80
2023/01/19 07:10:11;;;;;;;114.72;61.03;;;;;;;6.01;100.00;99279.91;5005794;28;20057;-80
2023/01/19 07:12:38;;;;;;;131.20;79.07;;;;;;;6.78;100.00;99401.47;5002960;28;20058;-81
2023/01/19 07:15:04;;;;;;;104.97;54.38;;;;;;;5.68;100.00;99193.13;5012423;28;20048;-82
2023/01/19 07:17:30;;;;;;;131.63;71.63;;;;;;;6.73;100.00;99336.31;5010799;28;20065;-79
2023/01/19 07:19:55;;;;;;;66.97;28.77;;;;;;;8.37;100.00;99418.22;5010274;28;20054;-80
2023/01/19 07:22:21;;;;;;;54.33;19.40;;;;;;;9.14;100.00;99365.25;5004227;28;20044;-80
2023/01/19 07:24:46;;;;;;;49.42;15.35;;;;;;;10.12;100.00;99388.44;5012082;28;20421;-79
2023/01/19 07:27:12;;;;;;;38.53;13.02;;;;;;;9.68;100.00;99271.19;5012297;28;20466;-78
2023/01/19 07:29:38;;;;;;;59.72;13.00;;;;;;;10.68;100.00;99335.13;5014581;28;20034;-78
2023/01/19 07:32:05;;;;;;;37.85;12.15;;;;;;;10.79;100.00;99330.53;5001438;28;20517;-80
2023/01/19 07:34:30;;;;;;;47.08;14.10;;;;;;;12.18;100.00;99491.56;5012003;28;20471;-82
2023/01/19 07:36:56;;;;;;;44.53;10.65;;;;;;;12.86;100.00;99569.88;5009708;28;20033;-79
2023/01/19 07:39:21;;;;;;;57.15;12.80;;;;;;;12.13;100.00;99454.00;5015972;28;20076;-77
2023/01/19 07:41:47;;;;;;;40.65;10.88;;;;;;;12.19;100.00;99461.72;4999412;28;20076;-76
2023/01/19 07:44:13;;;;;;;32.42;8.75;;;;;;;13.39;100.00;99624.84;5007973;28;20121;-74
2023/01/19 07:46:39;;;;;;;59.75;11.20;;;;;;;12.87;100.00;99521.56;5003413;28;20089;-75
2023/01/19 07:49:04;;;;;;;43.10;9.63;;;;;;;12.78;100.00;99512.16;4996583;28;20026;-74
2023/01/19 07:51:30;;;;;;;41.17;9.77;;;;;;;13.62;100.00;99622.50;5004649;28;20073;-74
2023/01/19 07:53:55;;;;;;;48.92;10.38;;;;;;;13.72;100.00;99642.50;5004373;28;20081;-76
2023/01/19 07:56:23;;;;;;;44.65;9.73;;;;;;;13.65;100.00;99617.19;5018172;28;20080;-76
2023/01/19 07:58:51;;;;;;;39.55;9.52;;;;;;;13.76;100.00;99627.44;5018184;28;20057;-74
2023/01/19 08:01:16;;;;;;;41.45;9.63;;;;;;;14.10;100.00;99663.50;5005333;28;20068;-75
2023/01/19 08:03:42;;;;;;;66.10;12.32;;;;;;;13.53;100.00;99572.66;5008637;28;20496;-75
2023/01/19 08:06:18;;;;;;;46.58;9.60;;;;;;;14.11;100.00;99642.34;5002945;28;20494;-74
2023/01/19 08:08:44;;;;;;;39.35;9.68;;;;;;;13.73;100.00;99544.00;5002483;28;20042;-76
2023/01/19 08:11:09;;;;;;;31.88;10.05;;;;;;;14.56;100.00;99681.63;5021714;28;20179;-78
2023/01/19 08:13:35;;;;;;;43.92;9.95;;;;;;;13.77;100.00;99554.50;5012710;28;20033;-78
2023/01/19 08:16:00;;;;;;;43.30;9.38;;;;;;;14.44;100.00;99658.16;5004504;28;20476;-76
2023/01/19 08:18:26;;;;;;;36.13;11.25;;;;;;;14.04;100.00;99573.97;5010634;28;20046;-78
2023/01/19 08:20:51;;;;;;;47.83;8.48;;;;;;;14.23;100.00;99576.94;5005059;28;20051;-79
2023/01/19 08:23:17;;;;;;;51.55;8.43;;;;;;;14.18;100.00;99582.34;4997970;28;20049;-77
2023/01/19 08:25:44;;;;;;;44.50;8.27;;;;;;;14.31;100.00;99589.03;4997313;28;20503;-80
2023/01/19 08:28:13;;;;;;;52.58;9.23;;;;;;;14.12;100.00;99532.41;5001919;28;20041;-78
2023/01/19 08:30:43;;;;;;;53.33;9.32;;;;;;;14.87;100.00;99675.44;5001507;28;20092;-77
2023/01/19 08:33:10;;;;;;;36.30;10.32;;;;;;;14.67;100.00;99633.75;5004302;28;20037;-77
2023/01/19 08:35:38;;;;;;;40.10;9.07;;;;;;;14.40;100.00;99590.53;5002183;28;20053;-76
2023/01/19 08:38:05;;;;;;;44.75;11.43;;;;;;;15.02;100.00;99682.03;5009303;28;20053;-77
2023/01/19 08:40:33;;;;;;;27.35;8.65;;;;;;;14.67;100.00;99607.38;5004284;28;20087;-80
2023/01/19 08:43:06;;;;;;;41.20;9.57;;;;;;;14.75;100.00;99600.09;5017812;28;20029;-77
2023/01/19 08:45:33;;;;;;;42.85;9.68;;;;;;;14.87;100.00;99601.50;5008579;28;20050;-78
2023/01/19 08:47:59;;;;;;;35.08;9.38;;;;;;;14.84;100.00;99584.84;5003288;28;20049;-77
2023/01/19 08:50:26;;;;;;;44.13;9.10;;;;;;;15.09;100.00;99627.25;5002391;28;20047;-76
2023/01/19 08:52:54;;;;;;;48.17;9.82;;;;;;;15.10;100.00;99634.25;5008048;28;20138;-77
2023/01/19 08:55:19;;;;;;;33.28;9.02;;;;;;;15.26;100.00;99632.84;5008775;28;20064;-76
2023/01/19 08:57:45;;;;;;;39.53;9.52;;;;;;;15.86;100.00;99720.00;5013364;28;20065;-76
2023/01/19 09:00:11;;;;;;;43.65;10.88;;;;;;;15.53;100.00;99649.63;5007257;28;20049;-77
2023/01/19 09:02:36;;;;;;;59.90;9.10;;;;;;;15.52;100.00;99621.44;5004994;28;20052;-76
2023/01/19 09:05:03;;;;;;;45.90;9.50;;;;;;;15.43;100.00;99616.47;4992943;28;20050;-76
2023/01/19 09:07:29;;;;;;;34.10;9.20;;;;;;;16.02;100.00;99710.66;4998331;28;20053;-80
2023/01/19 09:09:55;;;;;;;48.28;8.55;;;;;;;15.37;100.00;99585.78;4998964;28;20041;-77
2023/01/19 09:12:21;;;;;;;50.25;9.25;;;;;;;15.59;100.00;99607.13;5003330;28;22858;-76
2023/01/19 09:14:46;;;;;;;54.67;9.90;;;;;;;16.34;100.00;99724.53;4995144;28;20045;-76
2023/01/19 09:17:13;;;;;;;45.60;9.88;;;;;;;16.33;100.00;99705.16;5005771;28;20049;-77
2023/01/19 09:19:40;;;;;;;44.63;10.23;;;;;;;15.88;100.00;99618.50;5006314;28;20679;-77
2023/01/19 09:22:05;;;;;;;42.05;9.95;;;;;;;16.00;100.00;99603.97;5001372;28;20085;-77
2023/01/19 09:24:31;;;;;;;45.72;8.70;;;;;;;16.51;100.00;99674.50;5006649;28;20058;-78
2023/01/19 09:26:56;;;;;;;27.35;5.93;;;;;;;16.23;100.00;99627.84;5010542;28;20493;-77
2023/01/19 09:29:21;;;;;;;53.30;8.90;;;;;;;16.10;100.00;99601.88;5006601;28;20046;-77
2023/01/19 09:31:47;;;;;;;43.90;9.68;;;;;;;16.79;100.00;99706.19;5000166;28;20030;-76
2023/01/19 09:34:13;;;;;;;61.25;9.73;;;;;;;16.15;100.00;99573.44;4992519;28;20038;-81
2023/01/19 09:36:38;;;;;;;52.85;11.05;;;;;;;16.67;100.00;99650.97;4990069;28;20044;-77
2023/01/19 09:39:04;;;;;;;61.25;10.60;;;;;;;16.55;100.00;99614.34;5007882;28;20037;-76
2023/01/19 09:41:34;;;;;;;28.55;7.00;;;;;;;17.11;100.00;99680.25;4991374;28;20570;-79
2023/01/19 09:43:59;;;;;;;36.78;8.98;;;;;;;16.83;100.00;99630.06;5003836;28;20050;-78
2023/01/19 09:46:38;;;;;;;42.35;7.70;;;;;;;16.38;100.00;99548.78;4999253;28;20053;-73
2023/01/19 09:49:14;;;;;;;44.55;9.15;;;;;;;17.08;100.00;99630.00;5016020;28;20088;-72
2023/01/19 09:51:45;;;;;;;55.05;10.70;;;;;;;17.25;100.00;99637.28;4997251;28;20033;-73
2023/01/19 09:54:19;;;;;;;32.15;7.50;;;;;;;17.40;100.00;99657.91;5005991;28;20057;-74
2023/01/19 09:56:47;;;;;;;33.47;8.93;;;;;;;17.50;100.00;99642.47;5002776;28;20121;-76
2023/01/19 09:59:29;;;;;;;32.53;6.55;;;;;;;17.03;100.00;99565.72;5012731;28;20037;-74
2023/01/19 10:02:13;;;;;;;37.67;8.02;;;;;;;17.54;100.00;99653.81;5008143;28;20053;-75
2023/01/19 10:04:57;;;;;;;29.27;7.78;;;;;;;17.48;100.00;99637.22;5001349;28;20462;-76
2023/01/19 10:07:36;;;;;;;42.85;10.05;;;;;;;17.04;100.00;99538.28;5008556;28;20033;-74
2023/01/19 10:10:23;;;;;;;40.58;7.55;;;;;;;17.72;100.00;99658.34;5018720;28;20540;-75
2023/01/19 10:12:54;;;;;;;52.60;8.00;;;;;;;17.67;100.00;99650.56;5004230;28;20048;-74
2023/01/19 10:15:31;;;;;;;39.28;8.63;;;;;;;17.18;100.00;99540.34;5008727;28;20881;-77
2023/01/19 10:18:02;;;;;;;35.72;7.80;;;;;;;17.91;100.00;99640.78;4991760;28;20057;-73
2023/01/19 10:20:33;;;;;;;42.08;9.02;;;;;;;17.36;100.00;99542.25;5010109;28;20164;-74
2023/01/19 10:23:00;;;;;;;37.00;8.57;;;;;;;17.39;100.00;99558.03;5020597;28;20050;-74
2023/01/19 10:25:26;;;;;;;35.72;8.07;;;;;;;17.99;100.00;99636.94;5002782;28;20051;-75
2023/01/19 10:27:52;;;;;;;34.10;8.52;;;;;;;18.00;100.00;99639.50;5012516;28;20136;-74
2023/01/19 10:30:24;;;;;;;40.45;8.45;;;;;;;17.99;100.00;99623.66;5008527;28;20137;-74
2023/01/19 10:32:50;;;;;;;39.97;8.00;;;;;;;18.20;100.00;99640.44;5007230;28;20064;-75
2023/01/19 10:35:25;;;;;;;42.60;8.20;;;;;;;18.16;100.00;99645.00;5006586;28;20431;-74
2023/01/19 10:37:55;;;;;;;51.30;7.72;;;;;;;18.30;96.54;99629.34;5006206;28;20062;-74
2023/01/19 10:40:38;;;;;;;37.10;6.78;;;;;;;18.41;95.76;99636.84;5003953;28;20041;-73
2023/01/19 10:43:43;;;;;;;24.10;6.35;;;;;;;18.49;95.63;99636.47;5003345;28;20045;-74
2023/01/19 10:46:33;;;;;;;33.03;8.13;;;;;;;18.65;91.77;99615.41;5002178;28;20046;-74
2023/01/19 10:48:59;;;;;;;50.00;10.57;;;;;;;18.19;87.58;99513.91;5001477;28;20489;-77
2023/01/19 10:51:24;;;;;;;59.03;7.60;;;;;;;18.79;85.52;99597.03;5010043;28;20076;-75
2023/01/19 10:53:57;;;;;;;26.77;6.90;;;;;;;18.47;83.19;99527.66;5002002;28;20410;-75
2023/01/19 10:56:35;;;;;;;54.15;8.85;;;;;;;19.24;83.08;99630.34;5008562;28;20053;-74
2023/01/19 10:59:02;;;;;;;34.97;7.30;;;;;;;19.23;77.55;99611.81;5006483;28;20119;-73
2023/01/19 11:01:29;;;;;;;50.22;8.50;;;;;;;19.17;77.07;99587.25;5009647;28;20038;-75
2023/01/19 11:04:04;;;;;;;41.88;9.65;;;;;;;19.30;76.52;99590.16;4998866;28;20097;-73
2023/01/19 11:06:31;;;;;;;39.03;7.65;;;;;;;18.94;73.13;99497.97;5002720;28;20052;-73
2023/01/19 11:09:10;;;;;;;33.20;7.57;;;;;;;19.22;72.49;99575.50;5003133;28;20055;-75
2023/01/19 11:11:45;;;;;;;57.28;8.82;;;;;;;19.41;73.62;99573.69;5006093;28;20068;-78
2023/01/19 11:14:12;;;;;;;44.38;9.55;;;;;;;18.72;73.32;99510.53;5011452;28;20505;-75
2023/01/19 11:16:38;;;;;;;27.35;7.47;;;;;;;18.71;72.30;99482.25;5003403;28;20029;-75
2023/01/19 11:19:13;;;;;;;52.90;7.78;;;;;;;19.19;73.79;99589.81;5003674;28;20037;-75
2023/01/19 11:21:39;;;;;;;50.03;8.68;;;;;;;19.06;73.32;99591.34;5005116;28;20045;-73
2023/01/19 11:24:12;;;;;;;40.95;8.80;;;;;;;19.10;72.50;99571.63;4998738;28;20054;-74
2023/01/19 11:26:46;;;;;;;28.25;5.82;;;;;;;18.76;73.40;99493.50;5008524;28;20042;-76
2023/01/19 11:29:21;;;;;;;52.17;10.10;;;;;;;19.24;72.43;99570.97;5001826;28;20062;-73
2023/01/19 11:31:47;;;;;;;45.90;9.13;;;;;;;19.02;71.91;99534.78;4999012;28;20864;-77
2023/01/19 11:34:42;;;;;;;47.13;8.30;;;;;;;19.21;71.32;99592.41;5014486;28;20125;-76